TimeEDT,TemperatureF,Dew PointF,Humidity,Sea Level PressureIn,VisibilityMPH,Wind Direction,Wind SpeedMPH,Gust SpeedMPH,PrecipitationIn,Events,Conditions,WindDirDegrees,DateUTC
12:53 AM,72.0,62.1,71,29.93,10.0,SE,6.9,-,N/A,,Clear,140,2013-05-20 04:53:00
1:53 AM,70.0,62.1,76,29.94,10.0,SSE,6.9,-,N/A,,Clear,160,2013-05-20 05:53:00
2:53 AM,69.1,62.1,78,29.95,10.0,SSE,9.2,-,N/A,,Clear,160,2013-05-20 06:53:00
4:53 AM,68.0,62.1,81,29.96,10.0,SSE,9.2,-,N/A,,Clear,160,2013-05-20 08:53:00
5:53 AM,68.0,63.0,84,29.95,10.0,SSE,10.4,-,N/A,,Clear,150,2013-05-20 09:53:00
8:53 AM,73.0,64.9,76,29.95,10.0,SSE,12.7,-,N/A,,Clear,150,2013-05-20 12:53:00
9:53 AM,75.9,64.9,69,29.95,9.0,South,11.5,-,N/A,,Clear,170,2013-05-20 13:53:00
10:53 AM,81.0,66.0,60,29.95,10.0,South,9.2,-,N/A,,Clear,190,2013-05-20 14:53:00
11:53 AM,78.1,66.0,66,29.95,10.0,Calm,Calm,-,N/A,,Scattered Clouds,0,2013-05-20 15:53:00
12:53 PM,82.9,68.0,60,29.94,10.0,Variable,4.6,-,N/A,,Scattered Clouds,0,2013-05-20 16:53:00
1:53 PM,86.0,66.0,51,29.91,10.0,SSW,6.9,-,N/A,,Mostly Cloudy,200,2013-05-20 17:53:00
2:53 PM,86.0,66.9,53,29.90,10.0,SSW,10.4,18.4,N/A,,Scattered Clouds,200,2013-05-20 18:53:00
3:53 PM,86.0,66.9,53,29.88,9.0,SSE,11.5,21.9,N/A,,Partly Cloudy,150,2013-05-20 19:53:00
4:53 PM,84.9,68.0,57,29.86,8.0,South,16.1,23.0,N/A,,Clear,180,2013-05-20 20:53:00
5:53 PM,84.9,66.9,55,29.84,9.0,South,15.0,23.0,N/A,,Clear,180,2013-05-20 21:53:00
6:53 PM,82.9,66.0,56,29.84,9.0,SSW,15.0,-,N/A,,Clear,200,2013-05-20 22:53:00
7:53 PM,82.0,66.0,58,29.85,9.0,South,12.7,23.0,N/A,,Clear,190,2013-05-20 23:53:00
8:53 PM,81.0,66.9,62,29.86,9.0,South,13.8,-,N/A,,Clear,170,2013-05-21 00:53:00
10:53 PM,78.1,66.9,68,29.87,10.0,South,12.7,18.4,N/A,,Clear,170,2013-05-21 02:53:00
11:53 PM,77.0,66.9,71,29.86,10.0,South,10.4,-,N/A,,Clear,170,2013-05-21 03:53:00